sensor_id;sensor_type;location;lat;lon;timestamp;pressure;altitude;pressure_sealevel;temperature;humidity
10310;BME280;5200;43.236;27.986;2022-08-11T00:01:13;99813.84;;;17.90;76.08
10310;BME280;5200;43.236;27.986;2022-08-11T00:03:46;99807.31;;;17.92;76.05
10310;BME280;5200;43.236;27.986;2022-08-11T00:06:14;99800.78;;;17.95;75.94
10310;BME280;5200;43.236;27.986;2022-08-11T00:08:49;99808.22;;;18.00;75.76
10310;BME280;5200;43.236;27.986;2022-08-11T00:11:18;99802.06;;;17.99;75.65
10310;BME280;5200;43.236;27.986;2022-08-11T00:13:47;99806.19;;;18.02;75.42
10310;BME280;5200;43.236;27.986;2022-08-11T00:16:16;99800.00;;;18.01;75.76
10310;BME280;5200;43.236;27.986;2022-08-11T00:18:45;99794.09;;;17.99;75.54
10310;BME280;5200;43.236;27.986;2022-08-11T00:21:13;99802.06;;;17.99;75.66
10310;BME280;5200;43.236;27.986;2022-08-11T00:23:43;99798.78;;;17.97;75.78
10310;BME280;5200;43.236;27.986;2022-08-11T00:26:11;99799.34;;;17.92;75.94
10310;BME280;5200;43.236;27.986;2022-08-11T00:28:40;99798.69;;;17.90;76.25
10310;BME280;5200;43.236;27.986;2022-08-11T00:31:21;99803.22;;;17.90;76.24
10310;BME280;5200;43.236;27.986;2022-08-11T00:33:50;99798.69;;;17.90;76.38
10310;BME280;5200;43.236;27.986;2022-08-11T00:36:18;99799.91;;;17.88;76.38
10310;BME280;5200;43.236;27.986;2022-08-11T00:38:50;99818.72;;;17.86;76.39
10310;BME280;5200;43.236;27.986;2022-08-11T00:41:31;99813.28;;;17.80;76.68
10310;BME280;5200;43.236;27.986;2022-08-11T00:44:30;99822.31;;;17.79;77.05
10310;BME280;5200;43.236;27.986;2022-08-11T00:47:15;99831.28;;;17.78;76.99
10310;BME280;5200;43.236;27.986;2022-08-11T00:49:51;99830.28;;;17.79;77.12
10310;BME280;5200;43.236;27.986;2022-08-11T00:52:28;99844.34;;;17.72;77.47
10310;BME280;5200;43.236;27.986;2022-08-11T00:55:40;99845.53;;;17.70;77.50
10310;BME280;5200;43.236;27.986;2022-08-11T01:01:19;99871.88;;;17.65;77.71
10310;BME280;5200;43.236;27.986;2022-08-11T01:04:19;99874.06;;;17.61;78.04
10310;BME280;5200;43.236;27.986;2022-08-11T01:10:10;99863.28;;;17.48;78.23
10310;BME280;5200;43.236;27.986;2022-08-11T01:12:48;99895.09;;;17.56;78.43
10310;BME280;5200;43.236;27.986;2022-08-11T01:18:54;99882.19;;;17.53;78.43
10310;BME280;5200;43.236;27.986;2022-08-11T01:25:19;99870.91;;;17.51;78.68
10310;BME280;5200;43.236;27.986;2022-08-11T01:28:34;99848.34;;;17.47;78.62
10310;BME280;5200;43.236;27.986;2022-08-11T01:38:06;99834.69;;;17.50;78.32
10310;BME280;5200;43.236;27.986;2022-08-11T01:40:50;99847.84;;;17.58;78.05
10310;BME280;5200;43.236;27.986;2022-08-11T01:46:45;99844.19;;;17.59;78.27
10310;BME280;5200;43.236;27.986;2022-08-11T01:49:22;99819.25;;;17.60;77.62
10310;BME280;5200;43.236;27.986;2022-08-11T01:52:07;99833.19;;;17.62;77.63
10310;BME280;5200;43.236;27.986;2022-08-11T01:54:43;99830.25;;;17.57;77.94
10310;BME280;5200;43.236;27.986;2022-08-11T01:57:25;99823.09;;;17.58;78.17
10310;BME280;5200;43.236;27.986;2022-08-11T02:00:05;99816.31;;;17.55;78.26
10310;BME280;5200;43.236;27.986;2022-08-11T02:02:49;99811.75;;;17.49;78.24
10310;BME280;5200;43.236;27.986;2022-08-11T02:05:26;99816.31;;;17.55;77.95
10310;BME280;5200;43.236;27.986;2022-08-11T02:08:00;99815.94;;;17.58;78.10
10310;BME280;5200;43.236;27.986;2022-08-11T02:10:37;99824.31;;;17.55;78.11
10310;BME280;5200;43.236;27.986;2022-08-11T02:13:44;99807.53;;;17.40;78.06
10310;BME280;5200;43.236;27.986;2022-08-11T02:16:20;99843.56;;;17.57;78.20
10310;BME280;5200;43.236;27.986;2022-08-11T02:18:54;99802.22;;;17.40;78.17
10310;BME280;5200;43.236;27.986;2022-08-11T02:21:50;99803.88;;;17.41;78.06
10310;BME280;5200;43.236;27.986;2022-08-11T02:24:42;99815.78;;;17.45;78.29
10310;BME280;5200;43.236;27.986;2022-08-11T02:27:18;99786.19;;;17.33;78.45
10310;BME280;5200;43.236;27.986;2022-08-11T02:29:54;99798.75;;;17.39;78.61
10310;BME280;5200;43.236;27.986;2022-08-11T02:32:34;99804.53;;;17.43;78.54
10310;BME280;5200;43.236;27.986;2022-08-11T02:35:25;99808.09;;;17.50;78.36
10310;BME280;5200;43.236;27.986;2022-08-11T02:38:05;99824.56;;;17.60;78.41
10310;BME280;5200;43.236;27.986;2022-08-11T02:40:49;99816.00;;;17.65;78.21
10310;BME280;5200;43.236;27.986;2022-08-11T02:43:30;99818.84;;;17.63;78.17
10310;BME280;5200;43.236;27.986;2022-08-11T02:46:17;99803.75;;;17.64;78.28
10310;BME280;5200;43.236;27.986;2022-08-11T02:49:04;99803.44;;;17.73;78.09
10310;BME280;5200;43.236;27.986;2022-08-11T02:52:04;99804.41;;;17.72;78.15
10310;BME280;5200;43.236;27.986;2022-08-11T02:54:38;99822.75;;;17.82;77.97
10310;BME280;5200;43.236;27.986;2022-08-11T02:57:15;99819.09;;;17.83;77.91
10310;BME280;5200;43.236;27.986;2022-08-11T02:59:49;99797.47;;;17.71;78.28
10310;BME280;5200;43.236;27.986;2022-08-11T03:02:27;99804.00;;;17.69;78.27
10310;BME280;5200;43.236;27.986;2022-08-11T03:05:06;99810.31;;;17.83;78.72
10310;BME280;5200;43.236;27.986;2022-08-11T03:07:47;99826.44;;;17.81;78.71
10310;BME280;5200;43.236;27.986;2022-08-11T03:10:21;99819.28;;;17.82;78.83
10310;BME280;5200;43.236;27.986;2022-08-11T03:12:52;99815.81;;;17.81;78.95
10310;BME280;5200;43.236;27.986;2022-08-11T03:15:51;99796.44;;;17.72;78.82
10310;BME280;5200;43.236;27.986;2022-08-11T03:18:48;99801.41;;;17.75;78.83
10310;BME280;5200;43.236;27.986;2022-08-11T03:21:25;99825.50;;;17.89;78.59
10310;BME280;5200;43.236;27.986;2022-08-11T03:23:58;99836.13;;;18.10;77.88
10310;BME280;5200;43.236;27.986;2022-08-11T03:26:32;99828.47;;;18.22;77.47
10310;BME280;5200;43.236;27.986;2022-08-11T03:29:07;99835.50;;;18.30;76.91
10310;BME280;5200;43.236;27.986;2022-08-11T03:31:45;99826.84;;;18.49;76.41
10310;BME280;5200;43.236;27.986;2022-08-11T03:34:16;99826.31;;;18.61;75.36
10310;BME280;5200;43.236;27.986;2022-08-11T03:40:16;99821.66;;;18.97;73.74
10310;BME280;5200;43.236;27.986;2022-08-11T03:43:16;99825.47;;;19.23;72.83
10310;BME280;5200;43.236;27.986;2022-08-11T03:45:52;99839.53;;;19.45;71.84
10310;BME280;5200;43.236;27.986;2022-08-11T03:48:30;99832.56;;;19.51;71.43
10310;BME280;5200;43.236;27.986;2022-08-11T03:51:12;99837.50;;;19.54;71.20
10310;BME280;5200;43.236;27.986;2022-08-11T03:54:02;99830.94;;;19.63;70.77
10310;BME280;5200;43.236;27.986;2022-08-11T04:09:32;99802.09;;;20.00;69.11
10310;BME280;5200;43.236;27.986;2022-08-11T04:12:17;99811.16;;;20.32;67.57
10310;BME280;5200;43.236;27.986;2022-08-11T04:15:12;99802.72;;;20.48;67.12
10310;BME280;5200;43.236;27.986;2022-08-11T04:22:07;99788.34;;;20.69;66.22
10310;BME280;5200;43.236;27.986;2022-08-11T04:24:57;99797.75;;;20.85;66.47
10310;BME280;5200;43.236;27.986;2022-08-11T04:28:11;99806.38;;;20.94;66.83
10310;BME280;5200;43.236;27.986;2022-08-11T04:31:01;99799.31;;;21.06;66.77
10310;BME280;5200;43.236;27.986;2022-08-11T04:33:59;99788.41;;;21.15;66.81
10310;BME280;5200;43.236;27.986;2022-08-11T04:36:56;99780.41;;;21.08;67.41
10310;BME280;5200;43.236;27.986;2022-08-11T04:40:02;99788.22;;;21.09;67.67
10310;BME280;5200;43.236;27.986;2022-08-11T04:46:00;99812.78;;;21.38;66.76
10310;BME280;5200;43.236;27.986;2022-08-11T04:48:51;99795.94;;;21.31;67.26
10310;BME280;5200;43.236;27.986;2022-08-11T04:52:00;99809.47;;;21.49;67.09
10310;BME280;5200;43.236;27.986;2022-08-11T04:55:31;99805.94;;;21.56;66.44
10310;BME280;5200;43.236;27.986;2022-08-11T04:58:21;99812.63;;;21.78;65.82
10310;BME280;5200;43.236;27.986;2022-08-11T05:01:18;99810.44;;;21.93;65.23
10310;BME280;5200;43.236;27.986;2022-08-11T05:10:43;99832.91;;;22.74;62.11
10310;BME280;5200;43.236;27.986;2022-08-11T05:13:25;99845.41;;;22.80;61.86
10310;BME280;5200;43.236;27.986;2022-08-11T05:16:14;99858.13;;;23.10;61.48
10310;BME280;5200;43.236;27.986;2022-08-11T05:19:00;99857.88;;;23.49;59.44
10310;BME280;5200;43.236;27.986;2022-08-11T05:21:52;99860.03;;;23.58;59.69
10310;BME280;5200;43.236;27.986;2022-08-11T05:24:41;99873.19;;;23.97;58.54
10310;BME280;5200;43.236;27.986;2022-08-11T05:27:32;99875.94;;;24.20;57.39
10310;BME280;5200;43.236;27.986;2022-08-11T05:30:19;99873.94;;;24.58;57.02
10310;BME280;5200;43.236;27.986;2022-08-11T05:33:11;99895.69;;;24.68;56.11
10310;BME280;5200;43.236;27.986;2022-08-11T05:36:04;99873.09;;;24.69;55.78
10310;BME280;5200;43.236;27.986;2022-08-11T05:38:35;99879.75;;;24.78;55.87
10310;BME280;5200;43.236;27.986;2022-08-11T05:41:22;99892.28;;;24.73;54.82
10310;BME280;5200;43.236;27.986;2022-08-11T05:44:09;99888.91;;;24.77;55.14
10310;BME280;5200;43.236;27.986;2022-08-11T05:46:54;99892.75;;;25.05;54.45
10310;BME280;5200;43.236;27.986;2022-08-11T05:49:39;99887.94;;;25.30;53.94
10310;BME280;5200;43.236;27.986;2022-08-11T05:52:27;99889.97;;;25.64;52.21
10310;BME280;5200;43.236;27.986;2022-08-11T05:55:13;99878.41;;;25.92;51.41
10310;BME280;5200;43.236;27.986;2022-08-11T05:58:01;99895.38;;;25.92;51.29
10310;BME280;5200;43.236;27.986;2022-08-11T06:00:37;99891.84;;;26.21;51.30
10310;BME280;5200;43.236;27.986;2022-08-11T06:03:07;99878.00;;;26.63;49.17
10310;BME280;5200;43.236;27.986;2022-08-11T06:05:36;99872.25;;;26.59;49.51
10310;BME280;5200;43.236;27.986;2022-08-11T06:08:05;99867.66;;;26.60;48.77
10310;BME280;5200;43.236;27.986;2022-08-11T06:10:34;99876.34;;;26.62;49.18
10310;BME280;5200;43.236;27.986;2022-08-11T06:13:02;99887.75;;;26.35;48.65
10310;BME280;5200;43.236;27.986;2022-08-11T06:15:32;99881.13;;;26.26;49.45
10310;BME280;5200;43.236;27.986;2022-08-11T06:18:00;99874.19;;;26.30;49.24
10310;BME280;5200;43.236;27.986;2022-08-11T06:20:29;99879.25;;;26.43;49.13
10310;BME280;5200;43.236;27.986;2022-08-11T06:23:03;99875.69;;;26.54;49.03
10310;BME280;5200;43.236;27.986;2022-08-11T06:25:32;99884.09;;;26.75;48.00
10310;BME280;5200;43.236;27.986;2022-08-11T06:28:02;99871.31;;;26.87;47.55
10310;BME280;5200;43.236;27.986;2022-08-11T06:30:37;99877.44;;;26.99;46.65
10310;BME280;5200;43.236;27.986;2022-08-11T06:33:08;99882.06;;;26.82;46.99
10310;BME280;5200;43.236;27.986;2022-08-11T06:35:45;99875.53;;;26.61;47.49
10310;BME280;5200;43.236;27.986;2022-08-11T06:38:19;99876.41;;;26.67;47.05
10310;BME280;5200;43.236;27.986;2022-08-11T06:40:52;99866.09;;;26.81;46.71
10310;BME280;5200;43.236;27.986;2022-08-11T06:43:45;99872.66;;;27.07;45.74
10310;BME280;5200;43.236;27.986;2022-08-11T06:46:16;99878.81;;;27.41;45.05
10310;BME280;5200;43.236;27.986;2022-08-11T06:48:49;99868.31;;;27.45;43.62
10310;BME280;5200;43.236;27.986;2022-08-11T06:51:19;99871.28;;;27.43;44.10
10310;BME280;5200;43.236;27.986;2022-08-11T06:53:49;99877.59;;;27.10;44.65
10310;BME280;5200;43.236;27.986;2022-08-11T06:56:22;99882.09;;;27.21;44.12
10310;BME280;5200;43.236;27.986;2022-08-11T06:59:09;99877.53;;;27.49;43.58
10310;BME280;5200;43.236;27.986;2022-08-11T07:02:05;99878.78;;;27.63;43.32
10310;BME280;5200;43.236;27.986;2022-08-11T07:04:39;99877.72;;;27.64;43.37
10310;BME280;5200;43.236;27.986;2022-08-11T07:10:42;99888.84;;;27.07;43.76
10310;BME280;5200;43.236;27.986;2022-08-11T07:13:33;99889.50;;;27.14;44.33
10310;BME280;5200;43.236;27.986;2022-08-11T07:16:22;99884.31;;;27.51;44.03
10310;BME280;5200;43.236;27.986;2022-08-11T07:18:54;99896.06;;;27.62;43.37
10310;BME280;5200;43.236;27.986;2022-08-11T07:21:45;99894.47;;;27.61;43.01
10310;BME280;5200;43.236;27.986;2022-08-11T07:24:35;99890.66;;;27.62;43.15
10310;BME280;5200;43.236;27.986;2022-08-11T07:27:22;99901.88;;;27.98;41.96
10310;BME280;5200;43.236;27.986;2022-08-11T07:30:10;99894.59;;;27.98;42.30
10310;BME280;5200;43.236;27.986;2022-08-11T07:32:46;99896.38;;;27.88;41.64
10310;BME280;5200;43.236;27.986;2022-08-11T07:35:43;99912.41;;;27.72;42.59
10310;BME280;5200;43.236;27.986;2022-08-11T07:38:16;99904.34;;;27.77;42.41
10310;BME280;5200;43.236;27.986;2022-08-11T07:41:08;99905.22;;;28.05;42.23
10310;BME280;5200;43.236;27.986;2022-08-11T07:43:36;99890.09;;;28.36;40.84
10310;BME280;5200;43.236;27.986;2022-08-11T07:46:04;99885.66;;;28.57;40.87
10310;BME280;5200;43.236;27.986;2022-08-11T07:48:51;99882.91;;;28.52;40.44
10310;BME280;5200;43.236;27.986;2022-08-11T07:51:37;99881.59;;;28.55;41.43
10310;BME280;5200;43.236;27.986;2022-08-11T07:54:22;99890.69;;;28.43;40.57
10310;BME280;5200;43.236;27.986;2022-08-11T07:56:50;99888.56;;;28.18;41.20
10310;BME280;5200;43.236;27.986;2022-08-11T07:59:19;99891.34;;;28.29;42.51
10310;BME280;5200;43.236;27.986;2022-08-11T08:02:04;99877.03;;;28.60;41.48
10310;BME280;5200;43.236;27.986;2022-08-11T08:04:48;99886.88;;;28.72;41.49
10310;BME280;5200;43.236;27.986;2022-08-11T08:07:36;99894.63;;;29.00;39.95
10310;BME280;5200;43.236;27.986;2022-08-11T08:10:21;99887.31;;;29.06;39.92
10310;BME280;5200;43.236;27.986;2022-08-11T08:13:06;99890.63;;;29.08;39.80
10310;BME280;5200;43.236;27.986;2022-08-11T08:15:51;99879.91;;;28.86;39.82
10310;BME280;5200;43.236;27.986;2022-08-11T08:18:37;99896.03;;;28.71;40.00
10310;BME280;5200;43.236;27.986;2022-08-11T08:21:04;99883.38;;;28.76;40.12
10310;BME280;5200;43.236;27.986;2022-08-11T08:23:41;99899.09;;;28.79;39.84
10310;BME280;5200;43.236;27.986;2022-08-11T08:26:10;99875.41;;;28.27;40.92
10310;BME280;5200;43.236;27.986;2022-08-11T08:28:52;99884.38;;;28.33;41.19
10310;BME280;5200;43.236;27.986;2022-08-11T08:31:41;99882.41;;;28.55;40.49
10310;BME280;5200;43.236;27.986;2022-08-11T08:34:08;99868.44;;;28.74;39.26
10310;BME280;5200;43.236;27.986;2022-08-11T08:36:36;99886.91;;;28.82;39.25
10310;BME280;5200;43.236;27.986;2022-08-11T08:39:04;99878.06;;;28.97;38.73
10310;BME280;5200;43.236;27.986;2022-08-11T08:41:31;99879.34;;;28.84;38.31
10310;BME280;5200;43.236;27.986;2022-08-11T08:44:07;99868.03;;;28.50;39.69
10310;BME280;5200;43.236;27.986;2022-08-11T08:46:37;99869.19;;;28.64;38.98
10310;BME280;5200;43.236;27.986;2022-08-11T08:49:07;99870.75;;;28.55;39.01
10310;BME280;5200;43.236;27.986;2022-08-11T08:51:39;99867.94;;;28.12;39.35
10310;BME280;5200;43.236;27.986;2022-08-11T08:54:11;99862.06;;;28.15;39.55
10310;BME280;5200;43.236;27.986;2022-08-11T08:56:41;99859.38;;;28.20;38.87
10310;BME280;5200;43.236;27.986;2022-08-11T08:59:11;99881.13;;;28.36;38.96
10310;BME280;5200;43.236;27.986;2022-08-11T09:01:42;99873.28;;;28.34;38.60
10310;BME280;5200;43.236;27.986;2022-08-11T09:04:12;99855.13;;;28.30;38.92
10310;BME280;5200;43.236;27.986;2022-08-11T09:06:40;99861.97;;;28.42;38.86
10310;BME280;5200;43.236;27.986;2022-08-11T09:09:11;99870.34;;;28.41;38.55
10310;BME280;5200;43.236;27.986;2022-08-11T09:11:41;99855.06;;;28.52;38.07
10310;BME280;5200;43.236;27.986;2022-08-11T09:14:20;99866.69;;;28.52;37.62
10310;BME280;5200;43.236;27.986;2022-08-11T09:16:48;99858.84;;;28.51;38.41
10310;BME280;5200;43.236;27.986;2022-08-11T09:19:18;99855.34;;;28.55;37.88
10310;BME280;5200;43.236;27.986;2022-08-11T09:21:47;99843.88;;;28.85;37.88
10310;BME280;5200;43.236;27.986;2022-08-11T09:24:38;99850.56;;;29.15;36.88
10310;BME280;5200;43.236;27.986;2022-08-11T09:27:32;99857.22;;;28.97;36.30
10310;BME280;5200;43.236;27.986;2022-08-11T09:30:00;99852.97;;;28.64;36.75
10310;BME280;5200;43.236;27.986;2022-08-11T09:32:27;99853.59;;;28.39;37.94
10310;BME280;5200;43.236;27.986;2022-08-11T09:34:56;99854.69;;;28.43;38.25
10310;BME280;5200;43.236;27.986;2022-08-11T09:37:23;99858.34;;;28.59;38.20
10310;BME280;5200;43.236;27.986;2022-08-11T09:40:10;99853.41;;;28.88;37.54
10310;BME280;5200;43.236;27.986;2022-08-11T09:43:00;99860.06;;;29.23;35.87
10310;BME280;5200;43.236;27.986;2022-08-11T09:45:46;99867.66;;;29.21;36.21
10310;BME280;5200;43.236;27.986;2022-08-11T09:48:16;99831.44;;;28.84;36.64
10310;BME280;5200;43.236;27.986;2022-08-11T09:50:45;99843.16;;;29.00;36.57
10310;BME280;5200;43.236;27.986;2022-08-11T09:53:14;99848.03;;;28.98;36.46
10310;BME280;5200;43.236;27.986;2022-08-11T09:55:44;99837.72;;;28.95;37.10
10310;BME280;5200;43.236;27.986;2022-08-11T09:58:13;99836.75;;;29.12;36.26
10310;BME280;5200;43.236;27.986;2022-08-11T10:00:41;99836.78;;;29.22;36.20
10310;BME280;5200;43.236;27.986;2022-08-11T10:03:11;99841.19;;;29.48;35.50
10310;BME280;5200;43.236;27.986;2022-08-11T10:05:39;99828.75;;;29.53;34.98
10310;BME280;5200;43.236;27.986;2022-08-11T10:08:28;99839.03;;;29.50;35.86
10310;BME280;5200;43.236;27.986;2022-08-11T10:10:59;99830.41;;;29.59;35.56
10310;BME280;5200;43.236;27.986;2022-08-11T10:13:30;99822.31;;;29.74;34.94
10310;BME280;5200;43.236;27.986;2022-08-11T10:16:19;99825.06;;;29.89;34.57
10310;BME280;5200;43.236;27.986;2022-08-11T10:18:49;99823.16;;;29.85;34.84
10310;BME280;5200;43.236;27.986;2022-08-11T10:21:24;99840.78;;;29.82;34.18
10310;BME280;5200;43.236;27.986;2022-08-11T10:23:53;99825.03;;;29.74;34.88
10310;BME280;5200;43.236;27.986;2022-08-11T10:26:41;99827.75;;;29.84;34.61
10310;BME280;5200;43.236;27.986;2022-08-11T10:29:25;99832.09;;;29.90;34.53
10310;BME280;5200;43.236;27.986;2022-08-11T10:32:11;99832.66;;;29.87;34.40
10310;BME280;5200;43.236;27.986;2022-08-11T10:34:58;99824.22;;;29.74;34.69
10310;BME280;5200;43.236;27.986;2022-08-11T10:37:27;99843.75;;;29.70;35.03
10310;BME280;5200;43.236;27.986;2022-08-11T10:39:59;99843.69;;;29.65;34.32
10310;BME280;5200;43.236;27.986;2022-08-11T10:42:29;99835.53;;;29.60;34.75
10310;BME280;5200;43.236;27.986;2022-08-11T10:45:15;99840.22;;;29.75;34.54
10310;BME280;5200;43.236;27.986;2022-08-11T10:48:04;99842.59;;;29.66;34.20
10310;BME280;5200;43.236;27.986;2022-08-11T10:50:31;99839.38;;;29.75;34.35
10310;BME280;5200;43.236;27.986;2022-08-11T10:53:17;99829.59;;;29.63;35.11
10310;BME280;5200;43.236;27.986;2022-08-11T10:56:03;99823.88;;;29.65;35.53
10310;BME280;5200;43.236;27.986;2022-08-11T10:58:50;99828.28;;;29.76;34.63
10310;BME280;5200;43.236;27.986;2022-08-11T11:01:22;99828.22;;;29.61;34.71
10310;BME280;5200;43.236;27.986;2022-08-11T11:03:52;99832.56;;;29.62;35.23
10310;BME280;5200;43.236;27.986;2022-08-11T11:06:23;99826.94;;;29.79;34.18
10310;BME280;5200;43.236;27.986;2022-08-11T11:08:56;99818.78;;;29.79;33.76
10310;BME280;5200;43.236;27.986;2022-08-11T11:11:25;99822.22;;;29.54;34.49
10310;BME280;5200;43.236;27.986;2022-08-11T11:14:18;99828.19;;;29.45;34.70
10310;BME280;5200;43.236;27.986;2022-08-11T11:17:04;99825.47;;;29.45;34.91
10310;BME280;5200;43.236;27.986;2022-08-11T11:19:53;99809.78;;;29.47;34.16
10310;BME280;5200;43.236;27.986;2022-08-11T11:22:24;99817.91;;;29.47;33.97
10310;BME280;5200;43.236;27.986;2022-08-11T11:25:37;99822.47;;;29.37;33.96
10310;BME280;5200;43.236;27.986;2022-08-11T11:28:27;99824.59;;;29.24;34.03
10310;BME280;5200;43.236;27.986;2022-08-11T11:31:09;99816.16;;;29.16;33.86
10310;BME280;5200;43.236;27.986;2022-08-11T11:33:52;99819.41;;;29.13;34.34
10310;BME280;5200;43.236;27.986;2022-08-11T11:36:27;99823.13;;;29.06;34.59
10310;BME280;5200;43.236;27.986;2022-08-11T11:38:58;99828.34;;;29.13;35.19
10310;BME280;5200;43.236;27.986;2022-08-11T11:41:26;99806.19;;;29.26;34.89
10310;BME280;5200;43.236;27.986;2022-08-11T11:43:55;99801.09;;;29.40;34.69
10310;BME280;5200;43.236;27.986;2022-08-11T11:46:26;99835.81;;;29.59;33.65
10310;BME280;5200;43.236;27.986;2022-08-11T11:48:53;99804.91;;;29.49;33.74
10310;BME280;5200;43.236;27.986;2022-08-11T11:51:21;99797.84;;;29.48;34.37
10310;BME280;5200;43.236;27.986;2022-08-11T11:53:49;99799.97;;;29.36;34.36
10310;BME280;5200;43.236;27.986;2022-08-11T11:56:18;99790.78;;;29.42;34.54
10310;BME280;5200;43.236;27.986;2022-08-11T11:58:47;99791.59;;;29.48;34.45
10310;BME280;5200;43.236;27.986;2022-08-11T12:01:34;99791.91;;;29.52;34.81
10310;BME280;5200;43.236;27.986;2022-08-11T12:04:03;99788.09;;;29.53;34.96
10310;BME280;5200;43.236;27.986;2022-08-11T12:06:31;99794.06;;;29.65;34.76
10310;BME280;5200;43.236;27.986;2022-08-11T12:08:59;99794.09;;;29.70;34.17
10310;BME280;5200;43.236;27.986;2022-08-11T12:11:27;99786.53;;;29.67;33.94
10310;BME280;5200;43.236;27.986;2022-08-11T12:14:15;99809.22;;;29.45;33.98
10310;BME280;5200;43.236;27.986;2022-08-11T12:16:46;99797.25;;;29.31;34.61
10310;BME280;5200;43.236;27.986;2022-08-11T12:19:14;99791.88;;;29.41;34.59
10310;BME280;5200;43.236;27.986;2022-08-11T12:21:42;99795.41;;;29.52;33.57
10310;BME280;5200;43.236;27.986;2022-08-11T12:24:24;99810.88;;;29.52;33.84
10310;BME280;5200;43.236;27.986;2022-08-11T12:27:09;99803.25;;;29.48;33.13
10310;BME280;5200;43.236;27.986;2022-08-11T12:29:50;99814.34;;;29.42;33.52
10310;BME280;5200;43.236;27.986;2022-08-11T12:32:21;99805.09;;;29.33;34.41
10310;BME280;5200;43.236;27.986;2022-08-11T12:34:49;99815.16;;;29.37;34.57
10310;BME280;5200;43.236;27.986;2022-08-11T12:37:20;99798.66;;;29.49;34.64
10310;BME280;5200;43.236;27.986;2022-08-11T12:39:50;99811.94;;;29.61;34.09
10310;BME280;5200;43.236;27.986;2022-08-11T12:42:36;99804.91;;;29.65;34.11
10310;BME280;5200;43.236;27.986;2022-08-11T12:45:24;99806.81;;;29.59;33.62
10310;BME280;5200;43.236;27.986;2022-08-11T12:48:09;99803.25;;;29.43;33.77
10310;BME280;5200;43.236;27.986;2022-08-11T12:51:01;99813.53;;;29.36;33.84
10310;BME280;5200;43.236;27.986;2022-08-11T12:53:53;99793.50;;;29.42;33.87
10310;BME280;5200;43.236;27.986;2022-08-11T12:56:21;99801.03;;;29.30;34.30
10310;BME280;5200;43.236;27.986;2022-08-11T12:59:07;99802.13;;;29.24;34.85
10310;BME280;5200;43.236;27.986;2022-08-11T13:01:52;99804.31;;;29.32;34.22
10310;BME280;5200;43.236;27.986;2022-08-11T13:04:40;99798.28;;;29.15;34.71
10310;BME280;5200;43.236;27.986;2022-08-11T13:07:22;99807.25;;;29.20;34.44
10310;BME280;5200;43.236;27.986;2022-08-11T13:09:51;99801.56;;;29.17;34.48
10310;BME280;5200;43.236;27.986;2022-08-11T13:12:18;99804.75;;;29.08;34.41
10310;BME280;5200;43.236;27.986;2022-08-11T13:15:05;99809.72;;;29.27;34.59
10310;BME280;5200;43.236;27.986;2022-08-11T13:17:33;99798.63;;;29.34;33.81
10310;BME280;5200;43.236;27.986;2022-08-11T13:20:01;99792.66;;;29.42;34.63
10310;BME280;5200;43.236;27.986;2022-08-11T13:22:29;99781.88;;;29.52;33.87
10310;BME280;5200;43.236;27.986;2022-08-11T13:24:57;99791.91;;;29.62;33.85
10310;BME280;5200;43.236;27.986;2022-08-11T13:27:24;99796.53;;;29.61;33.94
10310;BME280;5200;43.236;27.986;2022-08-11T13:29:53;99791.91;;;29.57;33.81
10310;BME280;5200;43.236;27.986;2022-08-11T13:32:43;99785.09;;;29.39;33.37
10310;BME280;5200;43.236;27.986;2022-08-11T13:35:13;99788.59;;;29.39;33.89
10310;BME280;5200;43.236;27.986;2022-08-11T13:37:41;99776.97;;;29.49;33.88
10310;BME280;5200;43.236;27.986;2022-08-11T13:40:11;99787.00;;;29.38;33.98
10310;BME280;5200;43.236;27.986;2022-08-11T13:42:39;99782.59;;;29.12;34.64
10310;BME280;5200;43.236;27.986;2022-08-11T13:45:07;99782.25;;;29.03;34.76
10310;BME280;5200;43.236;27.986;2022-08-11T13:47:36;99783.59;;;29.05;34.92
10310;BME280;5200;43.236;27.986;2022-08-11T13:50:05;99777.63;;;28.98;35.15
10310;BME280;5200;43.236;27.986;2022-08-11T13:52:34;99788.16;;;28.95;35.48
10310;BME280;5200;43.236;27.986;2022-08-11T13:55:04;99793.88;;;28.98;35.34
10310;BME280;5200;43.236;27.986;2022-08-11T13:57:33;99799.66;;;29.12;34.90
10310;BME280;5200;43.236;27.986;2022-08-11T14:00:01;99783.94;;;29.14;34.77
10310;BME280;5200;43.236;27.986;2022-08-11T14:02:37;99794.22;;;29.07;34.85
10310;BME280;5200;43.236;27.986;2022-08-11T14:05:10;99784.66;;;29.04;35.17
10310;BME280;5200;43.236;27.986;2022-08-11T14:07:46;99798.19;;;29.04;35.09
10310;BME280;5200;43.236;27.986;2022-08-11T14:10:16;99808.19;;;28.94;35.40
10310;BME280;5200;43.236;27.986;2022-08-11T14:12:50;99798.06;;;28.74;35.38
10310;BME280;5200;43.236;27.986;2022-08-11T14:15:40;99788.22;;;28.57;35.50
10310;BME280;5200;43.236;27.986;2022-08-11T14:18:13;99786.63;;;28.56;35.79
10310;BME280;5200;43.236;27.986;2022-08-11T14:20:43;99797.44;;;28.56;35.08
10310;BME280;5200;43.236;27.986;2022-08-11T14:23:34;99797.56;;;28.34;35.72
10310;BME280;5200;43.236;27.986;2022-08-11T14:26:04;99795.28;;;28.21;35.87
10310;BME280;5200;43.236;27.986;2022-08-11T14:28:52;99802.84;;;28.19;36.50
10310;BME280;5200;43.236;27.986;2022-08-11T14:31:22;99796.31;;;28.15;36.85
10310;BME280;5200;43.236;27.986;2022-08-11T14:33:52;99799.28;;;28.13;37.11
10310;BME280;5200;43.236;27.986;2022-08-11T14:36:21;99800.34;;;28.12;37.08
10310;BME280;5200;43.236;27.986;2022-08-11T14:38:51;99787.88;;;28.06;36.62
10310;BME280;5200;43.236;27.986;2022-08-11T14:41:20;99798.97;;;28.10;36.79
10310;BME280;5200;43.236;27.986;2022-08-11T14:44:07;99788.34;;;27.98;36.55
10310;BME280;5200;43.236;27.986;2022-08-11T14:46:52;99807.97;;;28.15;36.68
10310;BME280;5200;43.236;27.986;2022-08-11T14:49:37;99800.94;;;28.19;36.74
10310;BME280;5200;43.236;27.986;2022-08-11T14:52:08;99803.03;;;28.12;36.70
10310;BME280;5200;43.236;27.986;2022-08-11T14:54:41;99803.31;;;28.11;36.98
10310;BME280;5200;43.236;27.986;2022-08-11T14:57:25;99789.03;;;28.15;36.99